createdAt,value
2017-02-12T00:00:14.741Z,1014.45
2017-02-12T00:01:14.748Z,1014.48
2017-02-12T00:02:14.753Z,1014.49
2017-02-12T00:03:14.761Z,1014.51
2017-02-12T00:04:15.766Z,1014.57
2017-02-12T00:05:14.772Z,1014.56
2017-02-12T00:06:14.827Z,1014.55
2017-02-12T00:07:14.781Z,1014.58
2017-02-12T00:08:14.789Z,1014.6
2017-02-12T00:09:14.795Z,1014.59
2017-02-12T00:10:14.801Z,1014.58
2017-02-12T00:11:14.807Z,1014.57
2017-02-12T00:12:14.816Z,1014.61
2017-02-12T00:13:14.820Z,1014.61
2017-02-12T00:14:14.877Z,1014.59
2017-02-12T00:15:14.831Z,1014.6
2017-02-12T00:16:14.841Z,1014.6
2017-02-12T00:17:14.896Z,1014.63
2017-02-12T00:18:14.851Z,1014.63
2017-02-12T00:19:14.858Z,1014.55
2017-02-12T00:20:14.862Z,1014.57
2017-02-12T00:21:14.919Z,1014.6
2017-02-12T00:22:14.875Z,1014.63
2017-02-12T00:23:14.880Z,1014.65
2017-02-12T00:24:14.891Z,1014.64
2017-02-12T00:25:14.894Z,1014.65
2017-02-12T00:26:15.201Z,1014.64
2017-02-12T00:27:14.956Z,1014.64
2017-02-12T00:28:14.961Z,1014.69
2017-02-12T00:29:14.922Z,1014.67
2017-02-12T00:30:14.924Z,1014.65
2017-02-12T00:31:14.929Z,1014.68
2017-02-12T00:32:14.936Z,1014.65
2017-02-12T00:33:14.992Z,1014.65
2017-02-12T00:34:14.998Z,1014.59
2017-02-12T00:35:14.955Z,1014.6
2017-02-12T00:36:15.012Z,1014.66
2017-02-12T00:37:14.966Z,1014.67
2017-02-12T00:38:14.973Z,1014.7
2017-02-12T00:39:14.978Z,1014.76
2017-02-12T00:40:14.984Z,1014.72
2017-02-12T00:41:15.040Z,1014.74
2017-02-12T00:42:15.047Z,1014.69
2017-02-12T00:43:15.003Z,1014.71
2017-02-12T00:44:15.011Z,1014.68
2017-02-12T00:45:15.016Z,1014.64
2017-02-12T00:46:15.020Z,1014.61
2017-02-12T00:47:15.027Z,1014.64
2017-02-12T00:48:15.032Z,1014.66
2017-02-12T00:49:15.091Z,1014.69
2017-02-12T00:50:16.047Z,1014.68
2017-02-12T00:51:15.051Z,1014.7
2017-02-12T00:52:15.111Z,1014.68
2017-02-12T00:53:15.113Z,1014.71
2017-02-12T00:54:15.120Z,1014.72
2017-02-12T00:55:15.075Z,1014.7
2017-02-12T00:56:15.081Z,1014.69
2017-02-12T00:57:15.087Z,1014.71
2017-02-12T00:58:15.093Z,1014.7
2017-02-12T00:59:15.102Z,1014.71
2017-02-12T01:00:15.105Z,1014.72
2017-02-12T01:01:15.112Z,1014.71
2017-02-12T01:02:15.167Z,1014.75
2017-02-12T01:03:15.126Z,1014.74
2017-02-12T01:04:15.129Z,1014.74
2017-02-12T01:05:15.185Z,1014.8
2017-02-12T01:06:15.193Z,1014.78
2017-02-12T01:07:15.147Z,1014.73
2017-02-12T01:08:15.152Z,1014.73
2017-02-12T01:09:15.160Z,1014.73
2017-02-12T01:10:15.216Z,1014.73
2017-02-12T01:11:15.223Z,1014.74
2017-02-12T01:12:15.578Z,1014.71
2017-02-12T01:13:15.184Z,1014.7
2017-02-12T01:14:15.240Z,1014.69
2017-02-12T01:15:15.196Z,1014.68
2017-02-12T01:16:15.252Z,1014.65
2017-02-12T01:17:15.207Z,1014.68
2017-02-12T01:18:15.213Z,1014.69
2017-02-12T01:19:15.220Z,1014.74
2017-02-12T01:20:15.226Z,1014.73
2017-02-12T01:21:15.283Z,1014.8
2017-02-12T01:22:15.238Z,1014.81
2017-02-12T01:23:15.242Z,1014.83
2017-02-12T01:24:15.248Z,1014.85
2017-02-12T01:25:15.256Z,1014.85
2017-02-12T01:26:15.261Z,1014.86
2017-02-12T01:27:15.268Z,1014.87
2017-02-12T01:28:15.323Z,1014.84
2017-02-12T01:29:15.279Z,1014.88
2017-02-12T01:30:15.284Z,1014.9
2017-02-12T01:31:15.292Z,1014.98
2017-02-12T01:32:15.346Z,1015
2017-02-12T01:33:15.303Z,1015.03
2017-02-12T01:34:15.359Z,1015.04
2017-02-12T01:35:15.314Z,1014.99
2017-02-12T01:36:16.421Z,1014.95
2017-02-12T01:37:15.413Z,1014.92
2017-02-12T01:38:15.381Z,1014.94
2017-02-12T01:39:15.337Z,1014.92
2017-02-12T01:40:15.395Z,1014.87
2017-02-12T01:41:15.350Z,1014.92
2017-02-12T01:42:15.355Z,1014.96
2017-02-12T01:43:15.363Z,1014.98
2017-02-12T01:44:15.370Z,1014.97
2017-02-12T01:45:15.376Z,1015
2017-02-12T01:46:15.431Z,1014.98
2017-02-12T01:47:15.437Z,1015.03
2017-02-12T01:48:15.392Z,1015.02
2017-02-12T01:49:15.449Z,1015.03
2017-02-12T01:50:15.405Z,1015.04
2017-02-12T01:51:15.461Z,1015.04
2017-02-12T01:52:15.466Z,1015.06
2017-02-12T01:53:15.515Z,1015.09
2017-02-12T01:54:15.430Z,1015.04
2017-02-12T01:55:15.484Z,1015.07
2017-02-12T01:56:15.491Z,1015.01
2017-02-12T01:57:15.498Z,1015.06
2017-02-12T01:58:16.405Z,1015.06
2017-02-12T01:59:15.459Z,1015.14
2017-02-12T02:00:15.515Z,1015.17
2017-02-12T02:01:15.470Z,1015.18
2017-02-12T02:02:15.477Z,1015.2
2017-02-12T02:03:15.534Z,1015.23
2017-02-12T02:04:15.489Z,1015.19
2017-02-12T02:05:15.495Z,1015.18
2017-02-12T02:06:15.501Z,1015.2
2017-02-12T02:07:15.507Z,1015.24
2017-02-12T02:08:15.563Z,1015.24
2017-02-12T02:09:15.569Z,1015.21
2017-02-12T02:10:15.575Z,1015.16
2017-02-12T02:11:15.530Z,1015.2
2017-02-12T02:12:15.585Z,1015.25
2017-02-12T02:13:15.542Z,1015.24
2017-02-12T02:14:15.546Z,1015.17
2017-02-12T02:15:15.554Z,1015.21
2017-02-12T02:16:15.560Z,1015.26
2017-02-12T02:17:15.564Z,1015.27
2017-02-12T02:18:15.570Z,1015.29
2017-02-12T02:19:15.629Z,1015.28
2017-02-12T02:20:15.833Z,1015.29
2017-02-12T02:21:15.588Z,1015.31
2017-02-12T02:22:15.595Z,1015.37
2017-02-12T02:23:15.601Z,1015.35
2017-02-12T02:24:15.607Z,1015.4
2017-02-12T02:25:15.613Z,1015.41
2017-02-12T02:26:15.618Z,1015.41
2017-02-12T02:27:15.623Z,1015.45
2017-02-12T02:28:15.630Z,1015.41
2017-02-12T02:29:15.635Z,1015.41
2017-02-12T02:30:15.642Z,1015.41
2017-02-12T02:31:15.654Z,1015.38
2017-02-12T02:32:15.654Z,1015.4
2017-02-12T02:33:15.666Z,1015.47
2017-02-12T02:34:15.665Z,1015.48
2017-02-12T02:35:15.671Z,1015.51
2017-02-12T02:36:15.676Z,1015.53
2017-02-12T02:37:15.733Z,1015.54
2017-02-12T02:38:15.689Z,1015.51
2017-02-12T02:39:15.695Z,1015.52
2017-02-12T02:40:15.750Z,1015.54
2017-02-12T02:41:15.707Z,1015.48
2017-02-12T02:42:15.714Z,1015.52
2017-02-12T02:43:15.717Z,1015.53
2017-02-12T02:44:16.875Z,1015.56
2017-02-12T02:45:15.729Z,1015.55
2017-02-12T02:46:15.737Z,1015.55
2017-02-12T02:47:15.741Z,1015.53
2017-02-12T02:48:15.746Z,1015.55
2017-02-12T02:49:15.754Z,1015.55
2017-02-12T02:50:15.762Z,1015.54
2017-02-12T02:51:15.815Z,1015.58
2017-02-12T02:52:15.771Z,1015.55
2017-02-12T02:53:15.777Z,1015.54
2017-02-12T02:54:16.783Z,1015.59
2017-02-12T02:55:15.840Z,1015.57
2017-02-12T02:56:15.848Z,1015.62
2017-02-12T02:57:15.800Z,1015.62
2017-02-12T02:58:15.806Z,1015.66
2017-02-12T02:59:15.812Z,1015.64
2017-02-12T03:00:15.818Z,1015.64
2017-02-12T03:01:15.822Z,1015.67
2017-02-12T03:02:15.882Z,1015.65
2017-02-12T03:03:15.835Z,1015.66
2017-02-12T03:04:15.841Z,1015.65
2017-02-12T03:05:15.847Z,1015.69
2017-02-12T03:06:16.504Z,1015.67
2017-02-12T03:07:15.860Z,1015.66
2017-02-12T03:08:15.865Z,1015.66
2017-02-12T03:09:15.920Z,1015.68
2017-02-12T03:10:15.876Z,1015.65
2017-02-12T03:11:15.933Z,1015.72
2017-02-12T03:12:15.887Z,1015.72
2017-02-12T03:13:15.944Z,1015.73
2017-02-12T03:14:15.919Z,1015.76
2017-02-12T03:15:15.905Z,1015.73
2017-02-12T03:16:15.913Z,1015.79
2017-02-12T03:17:15.917Z,1015.81
2017-02-12T03:18:15.924Z,1015.82
2017-02-12T03:19:15.930Z,1015.81
2017-02-12T03:20:15.936Z,1015.82
2017-02-12T03:21:15.941Z,1015.89
2017-02-12T03:22:15.954Z,1015.9
2017-02-12T03:23:15.953Z,1015.85
2017-02-12T03:24:15.959Z,1015.83
2017-02-12T03:25:15.966Z,1015.79
2017-02-12T03:26:16.022Z,1015.83
2017-02-12T03:27:15.976Z,1015.83
2017-02-12T03:28:16.036Z,1015.85
2017-02-12T03:29:15.989Z,1015.84
2017-02-12T03:30:17.095Z,1015.81
2017-02-12T03:31:16.000Z,1015.83
2017-02-12T03:32:16.005Z,1015.84
2017-02-12T03:33:16.012Z,1015.79
2017-02-12T03:34:16.018Z,1015.85
2017-02-12T03:35:16.023Z,1015.87
2017-02-12T03:36:16.030Z,1015.89
2017-02-12T03:37:16.085Z,1015.9
2017-02-12T03:38:16.039Z,1015.88
2017-02-12T03:39:16.046Z,1015.91
2017-02-12T03:40:16.052Z,1015.89
2017-02-12T03:41:16.059Z,1015.88
2017-02-12T03:42:16.066Z,1015.9
2017-02-12T03:43:16.121Z,1015.85
2017-02-12T03:44:16.126Z,1015.89
2017-02-12T03:45:16.082Z,1015.89
2017-02-12T03:46:16.137Z,1015.91
2017-02-12T03:47:16.144Z,1015.91
2017-02-12T03:48:16.099Z,1015.88
2017-02-12T03:49:16.104Z,1015.91
2017-02-12T03:50:16.110Z,1015.93
2017-02-12T03:51:16.116Z,1015.97
2017-02-12T03:52:17.074Z,1015.96
2017-02-12T03:53:16.127Z,1015.95
2017-02-12T03:54:16.135Z,1015.99
2017-02-12T03:55:16.140Z,1016.02
2017-02-12T03:56:16.145Z,1016.02
2017-02-12T03:57:16.151Z,1016.08
2017-02-12T03:58:16.158Z,1016.08
2017-02-12T03:59:16.213Z,1016.09
2017-02-12T04:00:16.220Z,1016.11
2017-02-12T04:01:16.225Z,1016.13
2017-02-12T04:02:16.183Z,1016.07
2017-02-12T04:03:16.187Z,1016.09
2017-02-12T04:04:16.193Z,1016.16
2017-02-12T04:05:16.199Z,1016.15
2017-02-12T04:06:16.204Z,1016.11
2017-02-12T04:07:16.211Z,1016.16
2017-02-12T04:08:16.217Z,1016.21
2017-02-12T04:09:16.225Z,1016.22
2017-02-12T04:10:16.228Z,1016.24
2017-02-12T04:11:16.234Z,1016.21
2017-02-12T04:12:16.239Z,1016.23
2017-02-12T04:13:16.294Z,1016.27
2017-02-12T04:14:16.651Z,1016.25
2017-02-12T04:15:16.255Z,1016.25
2017-02-12T04:16:16.312Z,1016.31
2017-02-12T04:17:16.270Z,1016.32
2017-02-12T04:18:16.274Z,1016.3
2017-02-12T04:19:16.280Z,1016.35
2017-02-12T04:20:16.286Z,1016.34
2017-02-12T04:21:16.297Z,1016.3
2017-02-12T04:22:16.348Z,1016.31
2017-02-12T04:23:16.304Z,1016.26
2017-02-12T04:24:16.310Z,1016.3
2017-02-12T04:25:16.315Z,1016.34
2017-02-12T04:26:16.320Z,1016.33
2017-02-12T04:27:16.326Z,1016.36
2017-02-12T04:28:16.383Z,1016.32
2017-02-12T04:29:16.338Z,1016.33
2017-02-12T04:30:16.401Z,1016.37
2017-02-12T04:31:16.350Z,1016.33
2017-02-12T04:32:16.407Z,1016.37
2017-02-12T04:33:16.361Z,1016.38
2017-02-12T04:34:16.367Z,1016.41
2017-02-12T04:35:16.412Z,1016.46
2017-02-12T04:36:16.379Z,1016.44
2017-02-12T04:37:16.384Z,1016.45
2017-02-12T04:38:17.510Z,1016.53
2017-02-12T04:39:16.396Z,1016.51
2017-02-12T04:40:16.401Z,1016.53
2017-02-12T04:41:16.458Z,1016.52
2017-02-12T04:42:16.415Z,1016.57
2017-02-12T04:43:16.421Z,1016.6
2017-02-12T04:44:16.476Z,1016.57
2017-02-12T04:45:16.431Z,1016.58
2017-02-12T04:46:16.437Z,1016.54
2017-02-12T04:47:16.442Z,1016.51
2017-02-12T04:48:16.498Z,1016.55
2017-02-12T04:49:16.454Z,1016.54
2017-02-12T04:50:16.461Z,1016.59
2017-02-12T04:51:16.466Z,1016.56
2017-02-12T04:52:16.472Z,1016.55
2017-02-12T04:53:16.478Z,1016.51
2017-02-12T04:54:16.485Z,1016.52
2017-02-12T04:55:16.490Z,1016.55
2017-02-12T04:56:16.497Z,1016.58
2017-02-12T04:57:16.501Z,1016.59
2017-02-12T04:58:16.557Z,1016.58
2017-02-12T04:59:16.515Z,1016.63
2017-02-12T05:00:17.120Z,1016.61
2017-02-12T05:01:16.527Z,1016.6
2017-02-12T05:02:16.581Z,1016.57
2017-02-12T05:03:16.587Z,1016.54
2017-02-12T05:04:16.543Z,1016.59
2017-02-12T05:05:16.548Z,1016.6
2017-02-12T05:06:16.604Z,1016.65
2017-02-12T05:07:16.563Z,1016.67
2017-02-12T05:08:16.567Z,1016.62
2017-02-12T05:09:16.572Z,1016.66
2017-02-12T05:10:16.578Z,1016.65
2017-02-12T05:11:16.583Z,1016.64
2017-02-12T05:12:16.641Z,1016.7
2017-02-12T05:13:16.595Z,1016.67
2017-02-12T05:14:16.601Z,1016.7
2017-02-12T05:15:16.607Z,1016.74
2017-02-12T05:16:16.614Z,1016.71
2017-02-12T05:17:16.619Z,1016.64
2017-02-12T05:18:16.674Z,1016.67
2017-02-12T05:19:16.684Z,1016.69
2017-02-12T05:20:16.635Z,1016.67
2017-02-12T05:21:16.641Z,1016.71
2017-02-12T05:22:16.897Z,1016.72
2017-02-12T05:23:16.654Z,1016.69
2017-02-12T05:24:16.660Z,1016.66
2017-02-12T05:25:16.665Z,1016.7
2017-02-12T05:26:16.672Z,1016.67
2017-02-12T05:27:16.728Z,1016.71
2017-02-12T05:28:16.682Z,1016.74
2017-02-12T05:29:16.688Z,1016.75
2017-02-12T05:30:16.695Z,1016.76
2017-02-12T05:31:16.700Z,1016.75
2017-02-12T05:32:16.708Z,1016.75
2017-02-12T05:33:16.713Z,1016.76
2017-02-12T05:34:16.718Z,1016.81
2017-02-12T05:35:16.774Z,1016.83
2017-02-12T05:36:16.729Z,1016.86
2017-02-12T05:37:17.034Z,1016.86
2017-02-12T05:38:16.741Z,1016.9
2017-02-12T05:39:16.746Z,1016.91
2017-02-12T05:40:16.757Z,1016.91
2017-02-12T05:41:16.759Z,1016.93
2017-02-12T05:42:16.766Z,1016.95
2017-02-12T05:43:16.771Z,1016.96
2017-02-12T05:44:16.777Z,1017.01
2017-02-12T05:45:16.782Z,1017.03
2017-02-12T05:46:17.892Z,1016.99
2017-02-12T05:47:16.796Z,1017
2017-02-12T05:48:16.800Z,1017.03
2017-02-12T05:49:16.804Z,1016.97
2017-02-12T05:50:16.811Z,1016.96
2017-02-12T05:51:16.866Z,1016.96
2017-02-12T05:52:16.822Z,1017.02
2017-02-12T05:53:16.827Z,1017.04
2017-02-12T05:54:16.834Z,1017.07
2017-02-12T05:55:16.840Z,1017.06
2017-02-12T05:56:16.848Z,1017.06
2017-02-12T05:57:16.851Z,1017.09
2017-02-12T05:58:16.859Z,1017.16
2017-02-12T05:59:16.917Z,1017.15
2017-02-12T06:00:16.869Z,1017.11
2017-02-12T06:01:16.874Z,1017.16
2017-02-12T06:02:16.881Z,1017.16
2017-02-12T06:03:16.887Z,1017.17
2017-02-12T06:04:16.941Z,1017.23
2017-02-12T06:05:16.902Z,1017.24
2017-02-12T06:06:16.955Z,1017.28
2017-02-12T06:07:16.911Z,1017.28
2017-02-12T06:08:17.918Z,1017.27
2017-02-12T06:09:16.921Z,1017.23
2017-02-12T06:10:16.979Z,1017.2
2017-02-12T06:11:16.934Z,1017.23
2017-02-12T06:12:16.939Z,1017.22
2017-02-12T06:13:16.947Z,1017.21
2017-02-12T06:14:17.002Z,1017.19
2017-02-12T06:15:16.958Z,1017.22
2017-02-12T06:16:16.961Z,1017.24
2017-02-12T06:17:16.970Z,1017.2
2017-02-12T06:18:17.025Z,1017.17
2017-02-12T06:19:16.980Z,1017.19
2017-02-12T06:20:16.986Z,1017.23
2017-02-12T06:21:16.992Z,1017.26
2017-02-12T06:22:17.048Z,1017.27
2017-02-12T06:23:18.160Z,1017.3
2017-02-12T06:24:17.095Z,1017.33
2017-02-12T06:25:17.019Z,1017.41
2017-02-12T06:26:17.020Z,1017.38
2017-02-12T06:27:17.028Z,1017.33
2017-02-12T06:28:17.033Z,1017.34
2017-02-12T06:29:17.041Z,1017.34
2017-02-12T06:30:17.096Z,1017.37
2017-02-12T06:31:17.051Z,1017.38
2017-02-12T06:32:17.060Z,1017.38
2017-02-12T06:33:17.063Z,1017.38
2017-02-12T06:34:17.068Z,1017.41
2017-02-12T06:35:17.074Z,1017.39
2017-02-12T06:36:17.130Z,1017.38
2017-02-12T06:37:17.086Z,1017.34
2017-02-12T06:38:17.141Z,1017.39
2017-02-12T06:39:17.098Z,1017.41
2017-02-12T06:40:17.554Z,1017.44
2017-02-12T06:41:17.109Z,1017.49
2017-02-12T06:42:17.116Z,1017.53
2017-02-12T06:43:17.122Z,1017.56
2017-02-12T06:44:17.127Z,1017.6
2017-02-12T06:45:17.935Z,1017.63
2017-02-12T06:46:17.139Z,1017.63
2017-02-12T06:47:17.145Z,1017.64
2017-02-12T06:48:17.150Z,1017.62
2017-02-12T06:49:17.157Z,1017.65
2017-02-12T06:50:17.162Z,1017.61
2017-02-12T06:51:17.168Z,1017.63
2017-02-12T06:52:17.175Z,1017.63
2017-02-12T06:53:17.229Z,1017.68
2017-02-12T06:54:17.235Z,1017.68
2017-02-12T06:55:17.191Z,1017.77
2017-02-12T06:56:17.247Z,1017.83
2017-02-12T06:57:17.202Z,1017.86
2017-02-12T06:58:17.209Z,1017.9
2017-02-12T06:59:17.216Z,1017.85
2017-02-12T07:00:17.221Z,1017.89
2017-02-12T07:01:17.228Z,1017.89
2017-02-12T07:02:17.231Z,1017.92
2017-02-12T07:03:17.242Z,1017.91
2017-02-12T07:04:17.243Z,1017.99
2017-02-12T07:05:17.249Z,1017.97
2017-02-12T07:06:17.304Z,1017.93
2017-02-12T07:07:17.861Z,1017.87
2017-02-12T07:08:17.316Z,1017.9
2017-02-12T07:09:17.273Z,1017.89
2017-02-12T07:10:17.279Z,1017.94
2017-02-12T07:11:17.336Z,1017.95
2017-02-12T07:12:17.291Z,1017.91
2017-02-12T07:13:17.296Z,1017.93
2017-02-12T07:14:17.301Z,1017.96
2017-02-12T07:15:17.608Z,1017.99
2017-02-12T07:16:17.363Z,1018
2017-02-12T07:17:17.318Z,1018.02
2017-02-12T07:18:17.325Z,1018.06
2017-02-12T07:19:17.330Z,1018.11
2017-02-12T07:20:17.336Z,1018.12
2017-02-12T07:21:17.342Z,1018.12
2017-02-12T07:22:17.349Z,1018.15
2017-02-12T07:23:17.354Z,1018.13
2017-02-12T07:24:17.359Z,1018.14
2017-02-12T07:25:17.365Z,1018.18
2017-02-12T07:26:17.422Z,1018.19
2017-02-12T07:27:17.376Z,1018.21
2017-02-12T07:28:17.383Z,1018.21
2017-02-12T07:29:17.989Z,1018.2
2017-02-12T07:30:17.395Z,1018.25
2017-02-12T07:31:17.402Z,1018.25
2017-02-12T07:32:17.407Z,1018.27
2017-02-12T07:33:17.462Z,1018.27
2017-02-12T07:34:17.419Z,1018.26
2017-02-12T07:35:17.424Z,1018.3
2017-02-12T07:36:17.430Z,1018.32
2017-02-12T07:37:17.486Z,1018.35
2017-02-12T07:38:17.442Z,1018.35
2017-02-12T07:39:17.446Z,1018.34
2017-02-12T07:40:17.455Z,1018.36
2017-02-12T07:41:17.459Z,1018.34
2017-02-12T07:42:17.515Z,1018.41
2017-02-12T07:43:17.471Z,1018.39
2017-02-12T07:44:17.477Z,1018.4
2017-02-12T07:45:17.484Z,1018.42
2017-02-12T07:46:17.539Z,1018.42
2017-02-12T07:47:17.495Z,1018.44
2017-02-12T07:48:17.500Z,1018.43
2017-02-12T07:49:17.507Z,1018.46
2017-02-12T07:50:17.512Z,1018.46
2017-02-12T07:51:18.168Z,1018.47
2017-02-12T07:52:17.526Z,1018.49
2017-02-12T07:53:17.531Z,1018.47
2017-02-12T07:54:17.535Z,1018.48
2017-02-12T07:55:17.541Z,1018.48
2017-02-12T07:56:17.548Z,1018.47
2017-02-12T07:57:17.554Z,1018.53
2017-02-12T07:58:17.610Z,1018.52
2017-02-12T07:59:17.616Z,1018.54
2017-02-12T08:00:17.576Z,1018.55
2017-02-12T08:01:17.628Z,1018.55
2017-02-12T08:02:17.584Z,1018.54
2017-02-12T08:03:17.589Z,1018.56
2017-02-12T08:04:17.597Z,1018.51
2017-02-12T08:05:17.605Z,1018.56
2017-02-12T08:06:18.159Z,1018.57
2017-02-12T08:07:17.614Z,1018.54
2017-02-12T08:08:17.670Z,1018.57
2017-02-12T08:09:17.627Z,1018.56
2017-02-12T08:10:17.634Z,1018.6
2017-02-12T08:11:17.640Z,1018.62
2017-02-12T08:12:17.671Z,1018.66
2017-02-12T08:13:17.653Z,1018.65
2017-02-12T08:14:17.658Z,1018.65
2017-02-12T08:15:17.663Z,1018.69
2017-02-12T08:16:17.719Z,1018.74
2017-02-12T08:17:17.725Z,1018.71
2017-02-12T08:18:17.681Z,1018.71
2017-02-12T08:19:17.687Z,1018.74
2017-02-12T08:20:17.693Z,1018.76
2017-02-12T08:21:17.699Z,1018.73
2017-02-12T08:22:17.705Z,1018.79
2017-02-12T08:23:17.711Z,1018.78
2017-02-12T08:24:17.718Z,1018.79
2017-02-12T08:25:17.723Z,1018.8
2017-02-12T08:26:17.779Z,1018.83
2017-02-12T08:27:17.734Z,1018.87
2017-02-12T08:28:17.892Z,1018.9
2017-02-12T08:29:17.798Z,1018.92
2017-02-12T08:30:17.752Z,1018.94
2017-02-12T08:31:17.759Z,1018.95
2017-02-12T08:32:17.815Z,1019.01
2017-02-12T08:33:17.867Z,1019.01
2017-02-12T08:34:17.777Z,1019.03
2017-02-12T08:35:17.784Z,1019
2017-02-12T08:36:17.790Z,1018.99
2017-02-12T08:37:18.746Z,1019
2017-02-12T08:38:17.801Z,1019.04
2017-02-12T08:39:17.808Z,1019.04
2017-02-12T08:40:17.814Z,1019.03
2017-02-12T08:41:17.821Z,1019.01
2017-02-12T08:42:17.827Z,1019.01
2017-02-12T08:43:17.833Z,1019.05
2017-02-12T08:44:17.888Z,1019.05
2017-02-12T08:45:17.894Z,1019.06
2017-02-12T08:46:17.851Z,1019.02
2017-02-12T08:47:17.857Z,1019.05
2017-02-12T08:48:17.862Z,1019.02
2017-02-12T08:49:17.917Z,1018.95
2017-02-12T08:50:17.874Z,1018.99
2017-02-12T08:51:17.881Z,1019.02
2017-02-12T08:52:18.938Z,1019.01
2017-02-12T08:53:17.942Z,1019
2017-02-12T08:54:17.899Z,1019.05
2017-02-12T08:55:18.205Z,1019.05
2017-02-12T08:56:17.911Z,1019.02
2017-02-12T08:57:17.967Z,1019.05
2017-02-12T08:58:17.923Z,1019.07
2017-02-12T08:59:17.929Z,1019.06
2017-02-12T09:00:17.935Z,1019.07
2017-02-12T09:01:17.940Z,1019.13
2017-02-12T09:02:17.947Z,1019.17
2017-02-12T09:03:17.952Z,1019.17
2017-02-12T09:04:17.958Z,1019.18
2017-02-12T09:05:17.965Z,1019.24
2017-02-12T09:06:17.972Z,1019.28
2017-02-12T09:07:17.977Z,1019.29
2017-02-12T09:08:18.033Z,1019.28
2017-02-12T09:09:17.993Z,1019.3
2017-02-12T09:10:17.996Z,1019.3
2017-02-12T09:11:18.004Z,1019.35
2017-02-12T09:12:18.062Z,1019.36
2017-02-12T09:13:18.017Z,1019.44
2017-02-12T09:14:18.472Z,1019.47
2017-02-12T09:15:18.380Z,1019.51
2017-02-12T09:16:18.036Z,1019.5
2017-02-12T09:17:18.045Z,1019.45
2017-02-12T09:18:18.050Z,1019.46
2017-02-12T09:19:18.114Z,1019.49
2017-02-12T09:20:18.115Z,1019.45
2017-02-12T09:21:18.072Z,1019.44
2017-02-12T09:22:18.078Z,1019.48
2017-02-12T09:23:18.088Z,1019.46
2017-02-12T09:24:18.094Z,1019.37
2017-02-12T09:25:18.100Z,1019.4
2017-02-12T09:26:18.159Z,1019.45
2017-02-12T09:27:18.117Z,1019.56
2017-02-12T09:28:18.125Z,1019.54
2017-02-12T09:29:18.130Z,1019.58
2017-02-12T09:30:18.137Z,1019.61
2017-02-12T09:31:18.146Z,1019.58
2017-02-12T09:32:18.203Z,1019.52
2017-02-12T09:33:18.159Z,1019.54
2017-02-12T09:34:18.168Z,1019.57
2017-02-12T09:35:18.175Z,1019.58
2017-02-12T09:36:18.681Z,1019.63
2017-02-12T09:37:18.690Z,1019.63
2017-02-12T09:38:18.197Z,1019.55
2017-02-12T09:39:18.203Z,1019.67
2017-02-12T09:40:18.215Z,1019.59
2017-02-12T09:41:18.219Z,1019.7
2017-02-12T09:42:18.230Z,1019.73
2017-02-12T09:43:18.235Z,1019.75
2017-02-12T09:44:18.294Z,1019.76
2017-02-12T09:45:18.249Z,1019.71
2017-02-12T09:46:18.307Z,1019.71
2017-02-12T09:47:18.314Z,1019.81
2017-02-12T09:48:18.270Z,1019.8
2017-02-12T09:49:18.328Z,1019.83
2017-02-12T09:50:18.285Z,1019.78
2017-02-12T09:51:18.293Z,1019.79
2017-02-12T09:52:18.300Z,1019.89
2017-02-12T09:53:18.309Z,1019.87
2017-02-12T09:54:18.316Z,1019.87
2017-02-12T09:55:18.623Z,1019.94
2017-02-12T09:56:18.382Z,1019.94
2017-02-12T09:57:18.338Z,1019.9
2017-02-12T09:58:18.396Z,1019.92
2017-02-12T09:59:18.405Z,1019.95
2017-02-12T10:00:18.361Z,1019.93
2017-02-12T10:01:18.369Z,1019.88
2017-02-12T10:02:18.375Z,1019.95
2017-02-12T10:03:18.432Z,1020
2017-02-12T10:04:18.441Z,1019.93
2017-02-12T10:05:18.445Z,1019.87
2017-02-12T10:06:18.453Z,1019.78
2017-02-12T10:07:18.460Z,1019.81
2017-02-12T10:08:18.416Z,1019.83
2017-02-12T10:09:18.424Z,1019.84
2017-02-12T10:10:18.431Z,1019.86
2017-02-12T10:11:18.438Z,1019.85
2017-02-12T10:12:18.493Z,1019.92
2017-02-12T10:13:18.451Z,1019.88
2017-02-12T10:14:18.458Z,1019.91
2017-02-12T10:15:18.464Z,1019.92
2017-02-12T10:16:18.470Z,1019.95
2017-02-12T10:17:18.477Z,1019.91
2017-02-12T10:18:18.484Z,1019.92
2017-02-12T10:19:18.541Z,1019.92
2017-02-12T10:20:18.496Z,1019.88
2017-02-12T10:21:18.505Z,1019.92
2017-02-12T10:22:19.661Z,1019.93
2017-02-12T10:23:18.515Z,1019.97
2017-02-12T10:24:18.523Z,1020.07
2017-02-12T10:25:18.531Z,1020.03
2017-02-12T10:26:18.537Z,1020.04
2017-02-12T10:27:18.544Z,1020.03
2017-02-12T10:28:18.550Z,1020
2017-02-12T10:29:18.557Z,1020
2017-02-12T10:30:18.562Z,1020.01
2017-02-12T10:31:18.570Z,1019.99
2017-02-12T10:32:18.575Z,1020
2017-02-12T10:33:18.632Z,1020.02
2017-02-12T10:34:18.588Z,1019.99
2017-02-12T10:35:18.594Z,1020.02
2017-02-12T10:36:18.652Z,1020.03
2017-02-12T10:37:18.609Z,1019.99
2017-02-12T10:38:18.663Z,1020.06
2017-02-12T10:39:18.670Z,1019.99
2017-02-12T10:40:18.626Z,1020.04
2017-02-12T10:41:18.632Z,1020.02
2017-02-12T10:42:18.639Z,1020.04
2017-02-12T10:43:18.645Z,1020.12
2017-02-12T10:44:19.453Z,1020.08
2017-02-12T10:45:18.658Z,1020.11
2017-02-12T10:46:18.664Z,1020.13
2017-02-12T10:47:18.675Z,1020.12
2017-02-12T10:48:18.678Z,1020.17
2017-02-12T10:49:18.684Z,1020.18
2017-02-12T10:50:18.690Z,1020.19
2017-02-12T10:51:18.746Z,1020.22
2017-02-12T10:52:18.702Z,1020.23
2017-02-12T10:53:18.760Z,1020.26
2017-02-12T10:54:18.767Z,1020.25
2017-02-12T10:55:18.721Z,1020.29
2017-02-12T10:56:18.777Z,1020.27
2017-02-12T10:57:18.734Z,1020.27
2017-02-12T10:58:18.740Z,1020.25
2017-02-12T10:59:18.747Z,1020.3
2017-02-12T11:00:18.753Z,1020.3
2017-02-12T11:01:18.760Z,1020.25
2017-02-12T11:02:18.816Z,1020.28
2017-02-12T11:03:18.772Z,1020.27
2017-02-12T11:04:19.078Z,1020.27
2017-02-12T11:05:18.786Z,1020.29
2017-02-12T11:06:19.341Z,1020.3
2017-02-12T11:07:18.848Z,1020.26
2017-02-12T11:08:18.855Z,1020.24
2017-02-12T11:09:18.811Z,1020.26
2017-02-12T11:10:18.866Z,1020.32
2017-02-12T11:11:18.872Z,1020.28
2017-02-12T11:12:18.829Z,1020.26
2017-02-12T11:13:18.835Z,1020.26
2017-02-12T11:14:18.842Z,1020.24
2017-02-12T11:15:18.898Z,1020.29
2017-02-12T11:16:18.856Z,1020.29
2017-02-12T11:17:18.862Z,1020.3
2017-02-12T11:18:18.917Z,1020.3
2017-02-12T11:19:18.872Z,1020.27
2017-02-12T11:20:18.879Z,1020.25
2017-02-12T11:21:19.687Z,1020.31
2017-02-12T11:22:18.941Z,1020.32
2017-02-12T11:23:18.950Z,1020.31
2017-02-12T11:24:18.904Z,1020.31
2017-02-12T11:25:18.959Z,1020.32
2017-02-12T11:26:18.966Z,1020.28
2017-02-12T11:27:18.922Z,1020.29
2017-02-12T11:28:18.980Z,1020.32
2017-02-12T11:29:18.934Z,1020.27
2017-02-12T11:30:18.940Z,1020.27
2017-02-12T11:31:18.999Z,1020.27
2017-02-12T11:32:19.003Z,1020.25
2017-02-12T11:33:18.958Z,1020.26
2017-02-12T11:34:18.969Z,1020.21
2017-02-12T11:35:18.974Z,1020.23
2017-02-12T11:36:19.029Z,1020.25
2017-02-12T11:37:18.983Z,1020.23
2017-02-12T11:38:19.041Z,1020.32
2017-02-12T11:39:19.046Z,1020.27
2017-02-12T11:40:19.001Z,1020.28
2017-02-12T11:41:19.008Z,1020.29
2017-02-12T11:42:19.011Z,1020.24
2017-02-12T11:43:19.471Z,1020.29
2017-02-12T11:44:19.075Z,1020.28
2017-02-12T11:45:19.033Z,1020.27
2017-02-12T11:46:19.040Z,1020.25
2017-02-12T11:47:19.044Z,1020.27
2017-02-12T11:48:19.109Z,1020.2
2017-02-12T11:49:19.106Z,1020.18
2017-02-12T11:50:19.114Z,1020.14
2017-02-12T11:51:19.120Z,1020.12
2017-02-12T11:52:19.082Z,1020.1
2017-02-12T11:53:19.081Z,1020.13
2017-02-12T11:54:19.137Z,1020.09
2017-02-12T11:55:19.143Z,1020.11
2017-02-12T11:56:19.150Z,1020.12
2017-02-12T11:57:19.106Z,1020.11
2017-02-12T11:58:19.111Z,1020.08
2017-02-12T11:59:19.169Z,1020.07
2017-02-12T12:00:19.123Z,1020.05
2017-02-12T12:01:19.180Z,1020.11
2017-02-12T12:02:19.186Z,1020.08
2017-02-12T12:03:19.192Z,1020.09
2017-02-12T12:04:19.148Z,1020.14
2017-02-12T12:05:19.204Z,1020.14
2017-02-12T12:06:19.160Z,1020.16
2017-02-12T12:07:19.167Z,1020.13
2017-02-12T12:08:19.174Z,1020.13